sensor_id;sensor_type;location;lat;lon;timestamp;P1;durP1;ratioP1;P2;durP2;ratioP2
17727;SDS011;8984;49.268;12.302;2022-11-12T00:00:08;88.70;;;4.73;;
17727;SDS011;8984;49.268;12.302;2022-11-12T00:02:36;48.57;;;4.37;;
17727;SDS011;8984;49.268;12.302;2022-11-12T00:05:03;8.67;;;3.60;;
17727;SDS011;8984;49.268;12.302;2022-11-12T00:07:31;51.60;;;3.90;;
17727;SDS011;8984;49.268;12.302;2022-11-12T00:09:58;64.83;;;4.47;;
17727;SDS011;8984;49.268;12.302;2022-11-12T00:12:25;28.53;;;3.80;;
17727;SDS011;8984;49.268;12.302;2022-11-12T00:14:52;31.13;;;4.00;;
17727;SDS011;8984;49.268;12.302;2022-11-12T00:17:19;76.00;;;4.47;;
17727;SDS011;8984;49.268;12.302;2022-11-12T00:19:46;46.53;;;4.20;;
17727;SDS011;8984;49.268;12.302;2022-11-12T00:22:13;85.47;;;5.57;;
17727;SDS011;8984;49.268;12.302;2022-11-12T00:24:41;27.47;;;4.00;;
17727;SDS011;8984;49.268;12.302;2022-11-12T00:27:08;26.67;;;3.47;;
17727;SDS011;8984;49.268;12.302;2022-11-12T00:29:35;20.93;;;3.57;;
17727;SDS011;8984;49.268;12.302;2022-11-12T00:32:03;30.03;;;3.70;;
17727;SDS011;8984;49.268;12.302;2022-11-12T00:34:30;18.13;;;3.03;;
17727;SDS011;8984;49.268;12.302;2022-11-12T00:36:57;15.40;;;3.43;;
17727;SDS011;8984;49.268;12.302;2022-11-12T00:39:24;30.70;;;3.73;;
17727;SDS011;8984;49.268;12.302;2022-11-12T00:41:52;30.60;;;4.00;;
17727;SDS011;8984;49.268;12.302;2022-11-12T00:44:19;34.43;;;3.73;;
17727;SDS011;8984;49.268;12.302;2022-11-12T00:46:46;60.63;;;4.00;;
17727;SDS011;8984;49.268;12.302;2022-11-12T00:49:13;40.30;;;3.40;;
17727;SDS011;8984;49.268;12.302;2022-11-12T00:51:40;43.00;;;4.40;;
17727;SDS011;8984;49.268;12.302;2022-11-12T00:54:07;110.13;;;4.80;;
17727;SDS011;8984;49.268;12.302;2022-11-12T00:56:34;64.93;;;4.03;;
17727;SDS011;8984;49.268;12.302;2022-11-12T00:59:02;56.00;;;4.23;;
17727;SDS011;8984;49.268;12.302;2022-11-12T01:01:29;25.10;;;3.60;;
17727;SDS011;8984;49.268;12.302;2022-11-12T01:03:56;27.83;;;3.63;;
17727;SDS011;8984;49.268;12.302;2022-11-12T01:06:24;20.43;;;3.37;;
17727;SDS011;8984;49.268;12.302;2022-11-12T01:08:51;68.03;;;4.00;;
17727;SDS011;8984;49.268;12.302;2022-11-12T01:11:20;109.43;;;4.67;;
17727;SDS011;8984;49.268;12.302;2022-11-12T01:13:51;77.83;;;4.47;;
17727;SDS011;8984;49.268;12.302;2022-11-12T01:16:21;77.43;;;4.23;;
17727;SDS011;8984;49.268;12.302;2022-11-12T01:18:51;50.80;;;3.97;;
17727;SDS011;8984;49.268;12.302;2022-11-12T01:21:20;52.83;;;3.50;;
17727;SDS011;8984;49.268;12.302;2022-11-12T01:23:47;35.20;;;3.63;;
17727;SDS011;8984;49.268;12.302;2022-11-12T01:26:15;25.33;;;3.30;;
17727;SDS011;8984;49.268;12.302;2022-11-12T01:28:43;41.87;;;3.60;;
17727;SDS011;8984;49.268;12.302;2022-11-12T01:31:12;13.27;;;3.37;;
17727;SDS011;8984;49.268;12.302;2022-11-12T01:33:43;24.37;;;3.37;;
17727;SDS011;8984;49.268;12.302;2022-11-12T01:36:11;64.17;;;3.80;;
17727;SDS011;8984;49.268;12.302;2022-11-12T01:38:40;108.40;;;4.17;;
17727;SDS011;8984;49.268;12.302;2022-11-12T01:41:10;22.23;;;3.20;;
17727;SDS011;8984;49.268;12.302;2022-11-12T01:43:39;40.83;;;3.47;;
17727;SDS011;8984;49.268;12.302;2022-11-12T01:46:07;25.37;;;3.53;;
17727;SDS011;8984;49.268;12.302;2022-11-12T01:48:40;18.30;;;3.30;;
17727;SDS011;8984;49.268;12.302;2022-11-12T01:51:15;52.50;;;3.30;;
17727;SDS011;8984;49.268;12.302;2022-11-12T01:53:44;49.80;;;3.67;;
17727;SDS011;8984;49.268;12.302;2022-11-12T01:56:15;34.07;;;3.60;;
17727;SDS011;8984;49.268;12.302;2022-11-12T01:58:42;164.40;;;6.00;;
17727;SDS011;8984;49.268;12.302;2022-11-12T02:01:12;51.40;;;3.43;;
17727;SDS011;8984;49.268;12.302;2022-11-12T02:03:38;73.17;;;4.10;;
17727;SDS011;8984;49.268;12.302;2022-11-12T02:06:12;9.00;;;2.50;;
17727;SDS011;8984;49.268;12.302;2022-11-12T02:08:41;29.70;;;3.00;;
17727;SDS011;8984;49.268;12.302;2022-11-12T02:11:10;58.23;;;3.27;;
17727;SDS011;8984;49.268;12.302;2022-11-12T02:13:39;51.57;;;3.40;;
17727;SDS011;8984;49.268;12.302;2022-11-12T02:16:25;189.43;;;6.20;;
17727;SDS011;8984;49.268;12.302;2022-11-12T02:18:57;23.90;;;2.70;;
17727;SDS011;8984;49.268;12.302;2022-11-12T02:21:25;59.10;;;3.83;;
17727;SDS011;8984;49.268;12.302;2022-11-12T02:23:56;90.90;;;4.17;;
17727;SDS011;8984;49.268;12.302;2022-11-12T02:26:24;77.97;;;3.93;;
17727;SDS011;8984;49.268;12.302;2022-11-12T02:28:54;104.37;;;3.80;;
17727;SDS011;8984;49.268;12.302;2022-11-12T02:31:21;76.53;;;4.00;;
17727;SDS011;8984;49.268;12.302;2022-11-12T02:33:50;18.60;;;2.93;;
17727;SDS011;8984;49.268;12.302;2022-11-12T02:36:17;34.27;;;2.87;;
17727;SDS011;8984;49.268;12.302;2022-11-12T02:38:52;48.97;;;3.23;;
17727;SDS011;8984;49.268;12.302;2022-11-12T02:41:22;108.63;;;4.17;;
17727;SDS011;8984;49.268;12.302;2022-11-12T02:43:49;54.37;;;3.50;;
17727;SDS011;8984;49.268;12.302;2022-11-12T02:46:16;59.10;;;3.27;;
17727;SDS011;8984;49.268;12.302;2022-11-12T02:48:43;130.07;;;4.17;;
17727;SDS011;8984;49.268;12.302;2022-11-12T02:51:13;133.73;;;4.77;;
17727;SDS011;8984;49.268;12.302;2022-11-12T02:53:40;32.27;;;3.13;;
17727;SDS011;8984;49.268;12.302;2022-11-12T02:56:09;122.73;;;4.63;;
17727;SDS011;8984;49.268;12.302;2022-11-12T02:58:35;34.37;;;2.80;;
17727;SDS011;8984;49.268;12.302;2022-11-12T03:01:02;61.27;;;3.60;;
17727;SDS011;8984;49.268;12.302;2022-11-12T03:03:30;92.40;;;3.93;;
17727;SDS011;8984;49.268;12.302;2022-11-12T03:05:57;28.00;;;3.10;;
17727;SDS011;8984;49.268;12.302;2022-11-12T03:08:26;35.53;;;3.07;;
17727;SDS011;8984;49.268;12.302;2022-11-12T03:10:55;67.43;;;3.67;;
17727;SDS011;8984;49.268;12.302;2022-11-12T03:13:24;10.13;;;2.33;;
17727;SDS011;8984;49.268;12.302;2022-11-12T03:15:57;14.97;;;2.47;;
17727;SDS011;8984;49.268;12.302;2022-11-12T03:18:27;3.77;;;2.87;;
17727;SDS011;8984;49.268;12.302;2022-11-12T03:20:54;54.93;;;3.57;;
17727;SDS011;8984;49.268;12.302;2022-11-12T03:23:21;6.53;;;2.53;;
17727;SDS011;8984;49.268;12.302;2022-11-12T03:25:48;19.10;;;2.80;;
17727;SDS011;8984;49.268;12.302;2022-11-12T03:28:16;10.13;;;2.43;;
17727;SDS011;8984;49.268;12.302;2022-11-12T03:30:44;18.30;;;3.77;;
17727;SDS011;8984;49.268;12.302;2022-11-12T03:33:15;22.60;;;3.33;;
17727;SDS011;8984;49.268;12.302;2022-11-12T03:35:44;17.17;;;2.50;;
17727;SDS011;8984;49.268;12.302;2022-11-12T03:38:11;44.67;;;3.27;;
17727;SDS011;8984;49.268;12.302;2022-11-12T03:40:38;34.90;;;2.97;;
17727;SDS011;8984;49.268;12.302;2022-11-12T03:43:05;54.03;;;3.07;;
17727;SDS011;8984;49.268;12.302;2022-11-12T03:45:32;20.57;;;2.90;;
17727;SDS011;8984;49.268;12.302;2022-11-12T03:48:00;5.23;;;2.50;;
17727;SDS011;8984;49.268;12.302;2022-11-12T03:50:28;16.90;;;2.50;;
17727;SDS011;8984;49.268;12.302;2022-11-12T03:52:58;32.03;;;3.27;;
17727;SDS011;8984;49.268;12.302;2022-11-12T03:55:26;48.17;;;2.93;;
17727;SDS011;8984;49.268;12.302;2022-11-12T03:57:54;36.03;;;3.00;;
17727;SDS011;8984;49.268;12.302;2022-11-12T04:00:22;23.03;;;2.93;;
17727;SDS011;8984;49.268;12.302;2022-11-12T04:02:50;44.33;;;3.13;;
17727;SDS011;8984;49.268;12.302;2022-11-12T04:05:19;12.17;;;2.13;;
17727;SDS011;8984;49.268;12.302;2022-11-12T04:08:04;14.50;;;2.30;;
17727;SDS011;8984;49.268;12.302;2022-11-12T04:10:50;11.90;;;2.33;;
17727;SDS011;8984;49.268;12.302;2022-11-12T04:13:17;46.00;;;2.93;;
17727;SDS011;8984;49.268;12.302;2022-11-12T04:15:57;54.63;;;3.00;;
17727;SDS011;8984;49.268;12.302;2022-11-12T04:18:52;20.10;;;2.20;;
17727;SDS011;8984;49.268;12.302;2022-11-12T04:21:39;26.60;;;2.70;;
17727;SDS011;8984;49.268;12.302;2022-11-12T04:24:19;74.37;;;3.33;;
17727;SDS011;8984;49.268;12.302;2022-11-12T04:27:06;100.57;;;4.17;;
17727;SDS011;8984;49.268;12.302;2022-11-12T04:29:35;16.23;;;2.60;;
17727;SDS011;8984;49.268;12.302;2022-11-12T04:32:21;83.07;;;3.30;;
17727;SDS011;8984;49.268;12.302;2022-11-12T04:34:49;5.40;;;2.10;;
17727;SDS011;8984;49.268;12.302;2022-11-12T04:37:18;61.97;;;3.40;;
17727;SDS011;8984;49.268;12.302;2022-11-12T04:39:45;73.17;;;3.27;;
17727;SDS011;8984;49.268;12.302;2022-11-12T04:42:12;6.43;;;1.97;;
17727;SDS011;8984;49.268;12.302;2022-11-12T04:44:57;78.47;;;3.43;;
17727;SDS011;8984;49.268;12.302;2022-11-12T04:47:32;23.97;;;2.70;;
17727;SDS011;8984;49.268;12.302;2022-11-12T04:50:04;22.37;;;2.50;;
17727;SDS011;8984;49.268;12.302;2022-11-12T04:52:34;59.20;;;3.43;;
17727;SDS011;8984;49.268;12.302;2022-11-12T04:55:00;18.83;;;2.20;;
17727;SDS011;8984;49.268;12.302;2022-11-12T04:57:27;50.37;;;2.50;;
17727;SDS011;8984;49.268;12.302;2022-11-12T04:59:57;75.33;;;3.43;;
17727;SDS011;8984;49.268;12.302;2022-11-12T05:02:24;62.77;;;2.90;;
17727;SDS011;8984;49.268;12.302;2022-11-12T05:04:53;33.90;;;2.60;;
17727;SDS011;8984;49.268;12.302;2022-11-12T05:07:20;98.90;;;3.27;;
17727;SDS011;8984;49.268;12.302;2022-11-12T05:09:48;11.90;;;2.00;;
17727;SDS011;8984;49.268;12.302;2022-11-12T05:12:15;3.90;;;1.90;;
17727;SDS011;8984;49.268;12.302;2022-11-12T05:14:42;109.10;;;3.73;;
17727;SDS011;8984;49.268;12.302;2022-11-12T05:17:09;53.67;;;2.73;;
17727;SDS011;8984;49.268;12.302;2022-11-12T05:19:35;21.53;;;2.33;;
17727;SDS011;8984;49.268;12.302;2022-11-12T05:22:02;11.73;;;1.80;;
17727;SDS011;8984;49.268;12.302;2022-11-12T05:24:35;128.77;;;3.87;;
17727;SDS011;8984;49.268;12.302;2022-11-12T05:27:07;32.27;;;2.57;;
17727;SDS011;8984;49.268;12.302;2022-11-12T05:29:36;11.37;;;1.90;;
17727;SDS011;8984;49.268;12.302;2022-11-12T05:32:03;8.43;;;2.10;;
17727;SDS011;8984;49.268;12.302;2022-11-12T05:34:30;59.27;;;2.57;;
17727;SDS011;8984;49.268;12.302;2022-11-12T05:36:57;19.47;;;2.13;;
17727;SDS011;8984;49.268;12.302;2022-11-12T05:39:24;3.20;;;1.57;;
17727;SDS011;8984;49.268;12.302;2022-11-12T05:41:51;30.47;;;2.27;;
17727;SDS011;8984;49.268;12.302;2022-11-12T05:44:19;10.80;;;1.80;;
17727;SDS011;8984;49.268;12.302;2022-11-12T05:46:46;18.17;;;1.80;;
17727;SDS011;8984;49.268;12.302;2022-11-12T05:49:14;18.17;;;1.80;;
17727;SDS011;8984;49.268;12.302;2022-11-12T05:51:41;166.17;;;4.83;;
17727;SDS011;8984;49.268;12.302;2022-11-12T05:54:11;4.83;;;1.77;;
17727;SDS011;8984;49.268;12.302;2022-11-12T05:56:38;5.87;;;1.80;;
17727;SDS011;8984;49.268;12.302;2022-11-12T05:59:09;38.17;;;2.27;;
17727;SDS011;8984;49.268;12.302;2022-11-12T06:01:38;12.90;;;1.77;;
17727;SDS011;8984;49.268;12.302;2022-11-12T06:04:08;46.77;;;2.40;;
17727;SDS011;8984;49.268;12.302;2022-11-12T06:06:37;13.70;;;2.13;;
17727;SDS011;8984;49.268;12.302;2022-11-12T06:09:04;16.23;;;2.00;;
17727;SDS011;8984;49.268;12.302;2022-11-12T06:11:31;36.07;;;2.27;;
17727;SDS011;8984;49.268;12.302;2022-11-12T06:13:59;9.30;;;1.80;;
17727;SDS011;8984;49.268;12.302;2022-11-12T06:16:26;60.60;;;2.63;;
17727;SDS011;8984;49.268;12.302;2022-11-12T06:18:55;29.50;;;1.97;;
17727;SDS011;8984;49.268;12.302;2022-11-12T06:21:22;6.67;;;1.87;;
17727;SDS011;8984;49.268;12.302;2022-11-12T06:23:51;34.73;;;2.27;;
17727;SDS011;8984;49.268;12.302;2022-11-12T06:26:20;4.67;;;1.70;;
17727;SDS011;8984;49.268;12.302;2022-11-12T06:28:48;5.40;;;1.70;;
17727;SDS011;8984;49.268;12.302;2022-11-12T06:31:15;26.70;;;1.90;;
17727;SDS011;8984;49.268;12.302;2022-11-12T06:33:43;19.10;;;1.70;;
17727;SDS011;8984;49.268;12.302;2022-11-12T06:36:12;96.93;;;3.63;;
17727;SDS011;8984;49.268;12.302;2022-11-12T06:38:41;62.60;;;3.20;;
17727;SDS011;8984;49.268;12.302;2022-11-12T06:41:08;47.00;;;2.63;;
17727;SDS011;8984;49.268;12.302;2022-11-12T06:43:37;34.63;;;2.50;;
17727;SDS011;8984;49.268;12.302;2022-11-12T06:46:04;7.03;;;2.40;;
17727;SDS011;8984;49.268;12.302;2022-11-12T06:48:32;37.20;;;2.53;;
17727;SDS011;8984;49.268;12.302;2022-11-12T06:51:04;5.43;;;1.80;;
17727;SDS011;8984;49.268;12.302;2022-11-12T06:53:33;18.83;;;2.07;;
17727;SDS011;8984;49.268;12.302;2022-11-12T06:56:00;33.37;;;4.00;;
17727;SDS011;8984;49.268;12.302;2022-11-12T06:58:28;34.00;;;3.30;;
17727;SDS011;8984;49.268;12.302;2022-11-12T07:00:55;8.73;;;3.10;;
17727;SDS011;8984;49.268;12.302;2022-11-12T07:03:22;28.20;;;3.10;;
17727;SDS011;8984;49.268;12.302;2022-11-12T07:05:49;13.50;;;2.97;;
17727;SDS011;8984;49.268;12.302;2022-11-12T07:08:15;4.90;;;2.77;;
17727;SDS011;8984;49.268;12.302;2022-11-12T07:10:43;8.53;;;2.90;;
17727;SDS011;8984;49.268;12.302;2022-11-12T07:13:10;12.83;;;3.17;;
17727;SDS011;8984;49.268;12.302;2022-11-12T07:15:37;54.47;;;3.37;;
17727;SDS011;8984;49.268;12.302;2022-11-12T07:18:04;32.37;;;3.30;;
17727;SDS011;8984;49.268;12.302;2022-11-12T07:20:31;8.47;;;2.30;;
17727;SDS011;8984;49.268;12.302;2022-11-12T07:22:58;11.67;;;2.40;;
17727;SDS011;8984;49.268;12.302;2022-11-12T07:25:25;8.87;;;2.07;;
17727;SDS011;8984;49.268;12.302;2022-11-12T07:27:53;27.70;;;2.60;;
17727;SDS011;8984;49.268;12.302;2022-11-12T07:30:20;38.97;;;2.80;;
17727;SDS011;8984;49.268;12.302;2022-11-12T07:32:47;157.03;;;5.03;;
17727;SDS011;8984;49.268;12.302;2022-11-12T07:35:14;27.90;;;2.40;;
17727;SDS011;8984;49.268;12.302;2022-11-12T07:37:41;94.63;;;3.97;;
17727;SDS011;8984;49.268;12.302;2022-11-12T07:40:08;31.40;;;2.60;;
17727;SDS011;8984;49.268;12.302;2022-11-12T07:42:35;11.63;;;2.20;;
17727;SDS011;8984;49.268;12.302;2022-11-12T07:45:04;37.67;;;2.43;;
17727;SDS011;8984;49.268;12.302;2022-11-12T07:47:31;17.37;;;2.67;;
17727;SDS011;8984;49.268;12.302;2022-11-12T07:49:58;5.67;;;2.30;;
17727;SDS011;8984;49.268;12.302;2022-11-12T07:52:25;8.53;;;2.10;;
17727;SDS011;8984;49.268;12.302;2022-11-12T07:54:52;16.40;;;2.37;;
17727;SDS011;8984;49.268;12.302;2022-11-12T07:57:18;33.37;;;2.93;;
17727;SDS011;8984;49.268;12.302;2022-11-12T07:59:45;22.23;;;3.17;;
17727;SDS011;8984;49.268;12.302;2022-11-12T08:02:14;5.13;;;2.30;;
17727;SDS011;8984;49.268;12.302;2022-11-12T08:04:40;33.07;;;3.03;;
17727;SDS011;8984;49.268;12.302;2022-11-12T08:07:07;6.37;;;2.00;;
17727;SDS011;8984;49.268;12.302;2022-11-12T08:09:34;9.20;;;2.70;;
17727;SDS011;8984;49.268;12.302;2022-11-12T08:12:01;20.60;;;3.10;;
17727;SDS011;8984;49.268;12.302;2022-11-12T08:14:28;65.50;;;3.73;;
17727;SDS011;8984;49.268;12.302;2022-11-12T08:16:55;7.33;;;2.50;;
17727;SDS011;8984;49.268;12.302;2022-11-12T08:19:24;33.87;;;4.20;;
17727;SDS011;8984;49.268;12.302;2022-11-12T08:21:51;10.13;;;2.70;;
17727;SDS011;8984;49.268;12.302;2022-11-12T08:24:18;13.03;;;2.80;;
17727;SDS011;8984;49.268;12.302;2022-11-12T08:26:45;33.37;;;3.30;;
17727;SDS011;8984;49.268;12.302;2022-11-12T08:29:12;9.53;;;2.23;;
17727;SDS011;8984;49.268;12.302;2022-11-12T08:31:39;11.13;;;2.70;;
17727;SDS011;8984;49.268;12.302;2022-11-12T08:34:05;13.83;;;2.33;;
17727;SDS011;8984;49.268;12.302;2022-11-12T08:36:44;25.27;;;2.77;;
17727;SDS011;8984;49.268;12.302;2022-11-12T08:39:11;23.53;;;3.10;;
17727;SDS011;8984;49.268;12.302;2022-11-12T08:41:37;2.40;;;2.20;;
17727;SDS011;8984;49.268;12.302;2022-11-12T08:44:04;53.77;;;3.93;;
17727;SDS011;8984;49.268;12.302;2022-11-12T08:46:31;4.97;;;2.50;;
17727;SDS011;8984;49.268;12.302;2022-11-12T08:48:58;4.80;;;2.63;;
17727;SDS011;8984;49.268;12.302;2022-11-12T08:51:24;10.50;;;2.73;;
17727;SDS011;8984;49.268;12.302;2022-11-12T08:53:53;17.17;;;3.07;;
17727;SDS011;8984;49.268;12.302;2022-11-12T08:56:20;25.67;;;2.97;;
17727;SDS011;8984;49.268;12.302;2022-11-12T08:58:47;6.00;;;2.80;;
17727;SDS011;8984;49.268;12.302;2022-11-12T09:01:13;20.87;;;2.97;;
17727;SDS011;8984;49.268;12.302;2022-11-12T09:03:40;16.27;;;3.37;;
17727;SDS011;8984;49.268;12.302;2022-11-12T09:06:07;32.80;;;4.83;;
17727;SDS011;8984;49.268;12.302;2022-11-12T09:08:34;10.83;;;4.40;;
17727;SDS011;8984;49.268;12.302;2022-11-12T09:11:05;18.57;;;3.37;;
17727;SDS011;8984;49.268;12.302;2022-11-12T09:13:32;30.33;;;5.33;;
17727;SDS011;8984;49.268;12.302;2022-11-12T09:16:00;34.97;;;4.17;;
17727;SDS011;8984;49.268;12.302;2022-11-12T09:18:33;43.67;;;5.77;;
17727;SDS011;8984;49.268;12.302;2022-11-12T09:21:01;7.73;;;5.13;;
17727;SDS011;8984;49.268;12.302;2022-11-12T09:23:29;20.07;;;8.90;;
17727;SDS011;8984;49.268;12.302;2022-11-12T09:25:56;16.93;;;7.60;;
17727;SDS011;8984;49.268;12.302;2022-11-12T09:28:24;6.77;;;3.70;;
17727;SDS011;8984;49.268;12.302;2022-11-12T09:30:52;12.03;;;3.50;;
17727;SDS011;8984;49.268;12.302;2022-11-12T09:33:20;18.40;;;3.63;;
17727;SDS011;8984;49.268;12.302;2022-11-12T09:35:48;7.83;;;3.30;;
17727;SDS011;8984;49.268;12.302;2022-11-12T09:38:17;8.00;;;2.93;;
17727;SDS011;8984;49.268;12.302;2022-11-12T09:40:59;3.00;;;2.63;;
17727;SDS011;8984;49.268;12.302;2022-11-12T09:43:37;9.53;;;3.10;;
17727;SDS011;8984;49.268;12.302;2022-11-12T09:46:20;6.23;;;3.63;;
17727;SDS011;8984;49.268;12.302;2022-11-12T09:49:03;15.13;;;5.53;;
17727;SDS011;8984;49.268;12.302;2022-11-12T09:51:36;5.30;;;4.40;;
17727;SDS011;8984;49.268;12.302;2022-11-12T09:54:11;9.83;;;4.93;;
17727;SDS011;8984;49.268;12.302;2022-11-12T09:56:46;6.60;;;5.90;;
17727;SDS011;8984;49.268;12.302;2022-11-12T09:59:14;8.20;;;6.30;;
17727;SDS011;8984;49.268;12.302;2022-11-12T10:01:48;9.07;;;7.17;;
17727;SDS011;8984;49.268;12.302;2022-11-12T10:04:25;9.43;;;8.00;;
17727;SDS011;8984;49.268;12.302;2022-11-12T10:07:08;14.63;;;9.47;;
17727;SDS011;8984;49.268;12.302;2022-11-12T10:09:44;10.33;;;7.80;;
17727;SDS011;8984;49.268;12.302;2022-11-12T10:12:20;8.40;;;7.43;;
17727;SDS011;8984;49.268;12.302;2022-11-12T10:15:16;8.60;;;7.00;;
17727;SDS011;8984;49.268;12.302;2022-11-12T10:18:15;8.73;;;7.67;;
17727;SDS011;8984;49.268;12.302;2022-11-12T10:20:54;8.93;;;6.80;;
17727;SDS011;8984;49.268;12.302;2022-11-12T10:23:23;8.17;;;6.87;;
17727;SDS011;8984;49.268;12.302;2022-11-12T10:25:55;9.07;;;7.23;;
17727;SDS011;8984;49.268;12.302;2022-11-12T10:28:24;10.27;;;8.60;;
17727;SDS011;8984;49.268;12.302;2022-11-12T10:30:57;14.73;;;9.47;;
17727;SDS011;8984;49.268;12.302;2022-11-12T10:33:28;30.07;;;13.80;;
17727;SDS011;8984;49.268;12.302;2022-11-12T10:35:57;13.00;;;11.43;;
17727;SDS011;8984;49.268;12.302;2022-11-12T10:38:44;11.30;;;8.47;;
17727;SDS011;8984;49.268;12.302;2022-11-12T10:41:17;9.63;;;8.17;;
17727;SDS011;8984;49.268;12.302;2022-11-12T10:43:52;15.73;;;11.23;;
17727;SDS011;8984;49.268;12.302;2022-11-12T10:46:24;16.20;;;11.50;;
17727;SDS011;8984;49.268;12.302;2022-11-12T10:48:53;14.37;;;9.47;;
17727;SDS011;8984;49.268;12.302;2022-11-12T10:51:23;12.50;;;9.30;;
17727;SDS011;8984;49.268;12.302;2022-11-12T10:53:52;11.13;;;8.97;;
17727;SDS011;8984;49.268;12.302;2022-11-12T10:56:22;16.40;;;9.03;;
17727;SDS011;8984;49.268;12.302;2022-11-12T11:01:37;12.60;;;9.80;;
17727;SDS011;8984;49.268;12.302;2022-11-12T11:04:04;13.87;;;9.40;;
17727;SDS011;8984;49.268;12.302;2022-11-12T11:06:41;10.93;;;8.33;;
17727;SDS011;8984;49.268;12.302;2022-11-12T11:09:13;15.77;;;8.23;;
17727;SDS011;8984;49.268;12.302;2022-11-12T11:11:47;11.07;;;8.10;;
17727;SDS011;8984;49.268;12.302;2022-11-12T11:14:28;13.27;;;9.40;;
17727;SDS011;8984;49.268;12.302;2022-11-12T11:16:59;19.97;;;10.20;;
17727;SDS011;8984;49.268;12.302;2022-11-12T11:19:34;10.87;;;8.00;;
17727;SDS011;8984;49.268;12.302;2022-11-12T11:22:06;12.20;;;8.27;;
17727;SDS011;8984;49.268;12.302;2022-11-12T11:24:47;34.10;;;9.43;;
17727;SDS011;8984;49.268;12.302;2022-11-12T11:27:28;14.80;;;8.37;;
17727;SDS011;8984;49.268;12.302;2022-11-12T11:32:53;11.83;;;8.30;;
17727;SDS011;8984;49.268;12.302;2022-11-12T11:38:44;14.80;;;7.87;;
17727;SDS011;8984;49.268;12.302;2022-11-12T11:44:14;9.03;;;6.60;;
17727;SDS011;8984;49.268;12.302;2022-11-12T11:46:56;6.43;;;5.33;;
17727;SDS011;8984;49.268;12.302;2022-11-12T11:49:39;7.27;;;5.90;;
17727;SDS011;8984;49.268;12.302;2022-11-12T11:52:39;7.40;;;5.83;;
17727;SDS011;8984;49.268;12.302;2022-11-12T11:55:16;10.13;;;7.87;;
17727;SDS011;8984;49.268;12.302;2022-11-12T11:58:08;8.03;;;6.23;;
17727;SDS011;8984;49.268;12.302;2022-11-12T12:00:46;9.67;;;7.20;;
17727;SDS011;8984;49.268;12.302;2022-11-12T12:03:19;5.80;;;4.70;;
17727;SDS011;8984;49.268;12.302;2022-11-12T12:05:54;5.60;;;5.07;;
17727;SDS011;8984;49.268;12.302;2022-11-12T12:08:55;5.07;;;4.63;;
17727;SDS011;8984;49.268;12.302;2022-11-12T12:11:33;5.37;;;4.87;;
17727;SDS011;8984;49.268;12.302;2022-11-12T12:14:06;5.53;;;5.03;;
17727;SDS011;8984;49.268;12.302;2022-11-12T12:16:53;5.80;;;5.20;;
17727;SDS011;8984;49.268;12.302;2022-11-12T12:19:36;6.27;;;4.60;;
17727;SDS011;8984;49.268;12.302;2022-11-12T12:22:17;7.57;;;5.00;;
17727;SDS011;8984;49.268;12.302;2022-11-12T12:24:50;6.73;;;5.33;;
17727;SDS011;8984;49.268;12.302;2022-11-12T12:27:21;8.37;;;5.43;;
17727;SDS011;8984;49.268;12.302;2022-11-12T12:29:52;6.03;;;5.30;;
17727;SDS011;8984;49.268;12.302;2022-11-12T12:32:28;8.63;;;6.70;;
17727;SDS011;8984;49.268;12.302;2022-11-12T12:35:01;6.57;;;5.87;;
17727;SDS011;8984;49.268;12.302;2022-11-12T12:40:50;6.00;;;5.40;;
17727;SDS011;8984;49.268;12.302;2022-11-12T12:46:24;5.50;;;5.00;;
17727;SDS011;8984;49.268;12.302;2022-11-12T12:48:57;5.40;;;4.47;;
17727;SDS011;8984;49.268;12.302;2022-11-12T12:51:51;5.43;;;4.93;;
17727;SDS011;8984;49.268;12.302;2022-11-12T12:57:32;7.60;;;5.27;;
17727;SDS011;8984;49.268;12.302;2022-11-12T13:00:30;5.13;;;4.53;;
17727;SDS011;8984;49.268;12.302;2022-11-12T13:06:23;6.73;;;5.23;;
17727;SDS011;8984;49.268;12.302;2022-11-12T13:08:54;6.10;;;5.50;;
17727;SDS011;8984;49.268;12.302;2022-11-12T13:11:50;8.27;;;5.80;;
17727;SDS011;8984;49.268;12.302;2022-11-12T13:21:17;6.40;;;5.80;;
17727;SDS011;8984;49.268;12.302;2022-11-12T13:23:46;7.97;;;5.90;;
17727;SDS011;8984;49.268;12.302;2022-11-12T13:26:43;6.63;;;5.87;;
17727;SDS011;8984;49.268;12.302;2022-11-12T13:29:40;6.87;;;6.00;;
17727;SDS011;8984;49.268;12.302;2022-11-12T13:35:25;6.67;;;5.80;;
17727;SDS011;8984;49.268;12.302;2022-11-12T13:37:58;9.47;;;5.40;;
17727;SDS011;8984;49.268;12.302;2022-11-12T13:40:38;6.23;;;4.73;;
17727;SDS011;8984;49.268;12.302;2022-11-12T13:43:16;6.57;;;5.87;;
17727;SDS011;8984;49.268;12.302;2022-11-12T13:45:58;8.00;;;6.13;;
17727;SDS011;8984;49.268;12.302;2022-11-12T13:48:51;6.30;;;5.70;;
17727;SDS011;8984;49.268;12.302;2022-11-12T13:51:27;6.07;;;5.47;;
17727;SDS011;8984;49.268;12.302;2022-11-12T13:57:15;6.03;;;5.43;;
17727;SDS011;8984;49.268;12.302;2022-11-12T14:03:04;6.43;;;5.80;;
17727;SDS011;8984;49.268;12.302;2022-11-12T14:05:48;10.33;;;6.73;;
17727;SDS011;8984;49.268;12.302;2022-11-12T14:08:21;7.57;;;6.87;;
17727;SDS011;8984;49.268;12.302;2022-11-12T14:11:04;7.43;;;6.67;;
17727;SDS011;8984;49.268;12.302;2022-11-12T14:13:47;7.60;;;6.90;;
17727;SDS011;8984;49.268;12.302;2022-11-12T14:16:40;8.10;;;7.17;;
17727;SDS011;8984;49.268;12.302;2022-11-12T14:22:37;7.10;;;6.40;;
17727;SDS011;8984;49.268;12.302;2022-11-12T14:25:12;6.67;;;5.90;;
17727;SDS011;8984;49.268;12.302;2022-11-12T14:27:53;6.80;;;6.10;;
17727;SDS011;8984;49.268;12.302;2022-11-12T14:30:28;7.17;;;5.93;;
17727;SDS011;8984;49.268;12.302;2022-11-12T14:33:07;7.47;;;6.40;;
17727;SDS011;8984;49.268;12.302;2022-11-12T14:35:57;6.47;;;5.87;;
17727;SDS011;8984;49.268;12.302;2022-11-12T14:39:00;9.50;;;6.60;;
17727;SDS011;8984;49.268;12.302;2022-11-12T14:41:34;7.93;;;5.80;;
17727;SDS011;8984;49.268;12.302;2022-11-12T14:44:14;7.37;;;6.50;;
17727;SDS011;8984;49.268;12.302;2022-11-12T14:46:59;7.97;;;6.17;;
17727;SDS011;8984;49.268;12.302;2022-11-12T14:49:54;8.53;;;6.50;;
17727;SDS011;8984;49.268;12.302;2022-11-12T14:52:53;7.90;;;6.00;;
17727;SDS011;8984;49.268;12.302;2022-11-12T14:55:25;22.93;;;7.10;;
17727;SDS011;8984;49.268;12.302;2022-11-12T14:58:02;9.57;;;6.10;;
17727;SDS011;8984;49.268;12.302;2022-11-12T15:00:35;7.13;;;6.43;;
17727;SDS011;8984;49.268;12.302;2022-11-12T15:03:08;15.60;;;5.77;;
17727;SDS011;8984;49.268;12.302;2022-11-12T15:05:58;10.30;;;6.97;;
17727;SDS011;8984;49.268;12.302;2022-11-12T15:08:54;28.07;;;6.57;;
17727;SDS011;8984;49.268;12.302;2022-11-12T15:11:29;25.33;;;7.07;;
17727;SDS011;8984;49.268;12.302;2022-11-12T15:14:04;15.43;;;6.87;;
17727;SDS011;8984;49.268;12.302;2022-11-12T15:16:40;13.67;;;5.97;;
17727;SDS011;8984;49.268;12.302;2022-11-12T15:22:04;25.20;;;6.60;;
17727;SDS011;8984;49.268;12.302;2022-11-12T15:27:47;39.37;;;7.40;;
17727;SDS011;8984;49.268;12.302;2022-11-12T15:30:38;29.40;;;6.27;;
17727;SDS011;8984;49.268;12.302;2022-11-12T15:33:15;71.37;;;7.57;;
17727;SDS011;8984;49.268;12.302;2022-11-12T15:35:54;89.77;;;6.67;;
17727;SDS011;8984;49.268;12.302;2022-11-12T15:38:25;119.17;;;7.17;;
17727;SDS011;8984;49.268;12.302;2022-11-12T15:41:02;24.33;;;5.50;;
17727;SDS011;8984;49.268;12.302;2022-11-12T15:43:34;33.30;;;6.17;;
17727;SDS011;8984;49.268;12.302;2022-11-12T15:46:09;49.63;;;6.17;;
17727;SDS011;8984;49.268;12.302;2022-11-12T15:48:45;34.17;;;6.30;;
17727;SDS011;8984;49.268;12.302;2022-11-12T15:51:14;43.97;;;6.80;;
17727;SDS011;8984;49.268;12.302;2022-11-12T15:53:46;19.77;;;6.20;;
17727;SDS011;8984;49.268;12.302;2022-11-12T15:56:21;57.03;;;6.70;;